Time,TemperatureF,DewpointF,PressureIn,WindDirection,WindDirectionDegrees,WindSpeedMPH,WindSpeedGustMPH,Humidity,HourlyPrecipIn,Conditions,Clouds,dailyrainin,SolarRadiationWatts/m^2,SoftwareType,DateUTC
2013-01-04 00:02:00,17.0,13.8,30.37,SSW,209,9.0,13.0,87,0.00,,,0.00,0,HR-IXPWINDi_r2_v1.2.,2013-01-04 06:02:00,
2013-01-04 00:07:00,17.1,13.9,30.37,SSW,194,9.0,13.0,87,0.00,,,0.00,0,HR-IXPWINDi_r2_v1.2.,2013-01-04 06:07:00,
2013-01-04 00:12:00,17.0,13.6,30.37,South,185,9.0,11.0,86,0.00,,,0.00,0,HR-IXPWINDi_r2_v1.2.,2013-01-04 06:12:00,
2013-01-04 00:17:00,16.8,13.4,30.37,SW,216,8.0,12.0,86,0.00,,,0.00,0,HR-IXPWINDi_r2_v1.2.,2013-01-04 06:17:00,
2013-01-04 00:23:00,16.7,13.3,30.37,South,179,7.0,12.0,86,0.00,,,0.00,0,HR-IXPWINDi_r2_v1.2.,2013-01-04 06:23:00,
2013-01-04 00:28:00,16.7,13.5,30.36,West,267,3.0,12.0,87,0.00,,,0.00,0,HR-IXPWINDi_r2_v1.2.,2013-01-04 06:28:00,
2013-01-04 00:33:00,16.8,13.6,30.36,SW,220,9.0,12.0,87,0.00,,,0.00,0,HR-IXPWINDi_r2_v1.2.,2013-01-04 06:33:00,
2013-01-04 00:38:00,17.3,14.1,30.36,SSE,167,10.0,11.0,87,0.00,,,0.00,0,HR-IXPWINDi_r2_v1.2.,2013-01-04 06:38:00,
2013-01-04 00:44:00,17.5,14.3,30.36,SSW,210,8.0,11.0,87,0.00,,,0.00,0,HR-IXPWINDi_r2_v1.2.,2013-01-04 06:44:00,
2013-01-04 00:49:00,17.6,14.4,30.35,SSW,210,9.0,12.0,87,0.00,,,0.00,0,HR-IXPWINDi_r2_v1.2.,2013-01-04 06:49:00,
2013-01-04 00:54:00,17.8,14.9,30.35,SSW,203,8.0,12.0,88,0.00,,,0.00,0,HR-IXPWINDi_r2_v1.2.,2013-01-04 06:54:00,
2013-01-04 00:59:00,17.9,15.0,30.35,SW,219,8.0,14.0,88,0.00,,,0.00,0,HR-IXPWINDi_r2_v1.2.,2013-01-04 06:59:00,
2013-01-04 01:04:00,17.7,14.5,30.34,SSW,192,8.0,14.0,87,0.00,,,0.00,0,HR-IXPWINDi_r2_v1.2.,2013-01-04 07:04:00,
2013-01-04 01:09:00,17.5,14.3,30.34,South,175,6.0,13.0,87,0.00,,,0.00,0,HR-IXPWINDi_r2_v1.2.,2013-01-04 07:09:00,
2013-01-04 01:14:00,17.4,14.2,30.34,SSW,206,7.0,11.0,87,0.00,,,0.00,0,HR-IXPWINDi_r2_v1.2.,2013-01-04 07:14:00,
2013-01-04 01:19:00,17.2,14.0,30.34,WSW,240,6.0,11.0,87,0.00,,,0.00,0,HR-IXPWINDi_r2_v1.2.,2013-01-04 07:19:00,
2013-01-04 01:24:00,17.1,13.9,30.34,SSW,201,8.0,10.0,87,0.00,,,0.00,0,HR-IXPWINDi_r2_v1.2.,2013-01-04 07:24:00,
2013-01-04 01:29:00,17.3,14.4,30.34,SW,226,9.0,10.0,88,0.00,,,0.00,0,HR-IXPWINDi_r2_v1.2.,2013-01-04 07:29:00,
2013-01-04 01:34:00,17.4,14.5,30.34,South,184,5.0,10.0,88,0.00,,,0.00,0,HR-IXPWINDi_r2_v1.2.,2013-01-04 07:34:00,
2013-01-04 01:40:00,17.4,14.5,30.34,SSW,203,3.0,10.0,88,0.00,,,0.00,0,HR-IXPWINDi_r2_v1.2.,2013-01-04 07:40:00,
2013-01-04 01:45:00,17.4,14.5,30.33,SW,234,3.0,8.0,88,0.00,,,0.00,0,HR-IXPWINDi_r2_v1.2.,2013-01-04 07:45:00,
2013-01-04 01:50:00,17.4,14.5,30.33,SW,219,2.0,7.0,88,0.00,,,0.00,0,HR-IXPWINDi_r2_v1.2.,2013-01-04 07:50:00,
2013-01-04 01:55:00,17.3,14.1,30.34,SW,216,4.0,7.0,87,0.00,,,0.00,0,HR-IXPWINDi_r2_v1.2.,2013-01-04 07:55:00,
2013-01-04 02:00:00,17.0,13.8,30.34,SW,221,4.0,6.0,87,0.00,,,0.00,0,HR-IXPWINDi_r2_v1.2.,2013-01-04 08:00:00,
2013-01-04 02:06:00,16.8,13.6,30.34,WSW,237,5.0,6.0,87,0.00,,,0.00,0,HR-IXPWINDi_r2_v1.2.,2013-01-04 08:06:00,
2013-01-04 02:11:00,16.7,13.8,30.34,SW,218,5.0,7.0,88,0.00,,,0.00,0,HR-IXPWINDi_r2_v1.2.,2013-01-04 08:11:00,
2013-01-04 02:16:00,16.7,13.8,30.34,SSW,196,6.0,8.0,88,0.00,,,0.00,0,HR-IXPWINDi_r2_v1.2.,2013-01-04 08:16:00,
2013-01-04 02:21:00,16.8,13.9,30.34,SSW,193,7.0,9.0,88,0.00,,,0.00,0,HR-IXPWINDi_r2_v1.2.,2013-01-04 08:21:00,
2013-01-04 02:27:00,16.9,14.0,30.34,SW,232,6.0,9.0,88,0.00,,,0.00,0,HR-IXPWINDi_r2_v1.2.,2013-01-04 08:27:00,
2013-01-04 02:32:00,17.1,14.2,30.33,SSW,193,5.0,10.0,88,0.00,,,0.00,0,HR-IXPWINDi_r2_v1.2.,2013-01-04 08:32:00,
2013-01-04 02:37:00,17.1,14.5,30.33,SW,219,7.0,10.0,89,0.00,,,0.00,0,HR-IXPWINDi_r2_v1.2.,2013-01-04 08:37:00,
2013-01-04 02:42:00,16.9,14.0,30.33,SSW,200,8.0,10.0,88,0.00,,,0.00,0,HR-IXPWINDi_r2_v1.2.,2013-01-04 08:42:00,
2013-01-04 02:48:00,16.7,13.8,30.33,SW,215,7.0,10.0,88,0.00,,,0.00,0,HR-IXPWINDi_r2_v1.2.,2013-01-04 08:48:00,
2013-01-04 02:53:00,16.6,13.7,30.33,South,190,8.0,10.0,88,0.00,,,0.00,0,HR-IXPWINDi_r2_v1.2.,2013-01-04 08:53:00,
2013-01-04 02:58:00,16.4,13.5,30.34,SW,221,8.0,10.0,88,0.00,,,0.00,0,HR-IXPWINDi_r2_v1.2.,2013-01-04 08:58:00,
2013-01-04 03:03:00,16.4,13.5,30.34,SW,222,6.0,10.0,88,0.00,,,0.00,0,HR-IXPWINDi_r2_v1.2.,2013-01-04 09:03:00,
2013-01-04 03:08:00,16.4,13.8,30.34,SSW,196,4.0,10.0,89,0.00,,,0.00,0,HR-IXPWINDi_r2_v1.2.,2013-01-04 09:08:00,
2013-01-04 03:14:00,16.3,13.7,30.34,South,188,6.0,10.0,89,0.00,,,0.00,0,HR-IXPWINDi_r2_v1.2.,2013-01-04 09:14:00,
2013-01-04 03:19:00,16.4,13.8,30.34,SSW,205,4.0,8.0,89,0.00,,,0.00,0,HR-IXPWINDi_r2_v1.2.,2013-01-04 09:19:00,
2013-01-04 03:24:00,16.6,14.0,30.34,SW,214,6.0,8.0,89,0.00,,,0.00,0,HR-IXPWINDi_r2_v1.2.,2013-01-04 09:24:00,
2013-01-04 03:29:00,16.7,14.1,30.34,South,186,5.0,8.0,89,0.00,,,0.00,0,HR-IXPWINDi_r2_v1.2.,2013-01-04 09:29:00,
2013-01-04 03:34:00,16.9,14.3,30.33,SSW,213,5.0,8.0,89,0.00,,,0.00,0,HR-IXPWINDi_r2_v1.2.,2013-01-04 09:34:00,
2013-01-04 03:39:00,17.0,14.4,30.33,South,182,5.0,8.0,89,0.00,,,0.00,0,HR-IXPWINDi_r2_v1.2.,2013-01-04 09:39:00,
2013-01-04 03:45:00,17.1,14.5,30.33,SW,217,6.0,9.0,89,0.00,,,0.00,0,HR-IXPWINDi_r2_v1.2.,2013-01-04 09:45:00,
2013-01-04 03:50:00,17.0,14.4,30.33,South,191,6.0,9.0,89,0.00,,,0.00,0,HR-IXPWINDi_r2_v1.2.,2013-01-04 09:50:00,
2013-01-04 03:55:00,16.9,14.3,30.33,SSW,210,6.0,9.0,89,0.00,,,0.00,0,HR-IXPWINDi_r2_v1.2.,2013-01-04 09:55:00,
2013-01-04 04:00:00,16.8,14.2,30.32,South,190,6.0,9.0,89,0.00,,,0.00,0,HR-IXPWINDi_r2_v1.2.,2013-01-04 10:00:00,
2013-01-04 04:05:00,16.7,14.1,30.32,SSW,203,7.0,9.0,89,0.00,,,0.00,0,HR-IXPWINDi_r2_v1.2.,2013-01-04 10:05:00,
2013-01-04 04:11:00,16.8,14.2,30.32,SSW,202,6.0,9.0,89,0.00,,,0.00,0,HR-IXPWINDi_r2_v1.2.,2013-01-04 10:11:00,
2013-01-04 04:16:00,16.8,14.2,30.32,South,191,4.0,10.0,89,0.00,,,0.00,0,HR-IXPWINDi_r2_v1.2.,2013-01-04 10:16:00,
2013-01-04 04:21:00,16.6,14.0,30.32,SSW,192,7.0,10.0,89,0.00,,,0.00,0,HR-IXPWINDi_r2_v1.2.,2013-01-04 10:21:00,
2013-01-04 04:26:00,16.7,14.1,30.32,South,190,5.0,9.0,89,0.00,,,0.00,0,HR-IXPWINDi_r2_v1.2.,2013-01-04 10:26:00,
2013-01-04 04:31:00,16.6,14.0,30.32,SW,220,7.0,9.0,89,0.00,,,0.00,0,HR-IXPWINDi_r2_v1.2.,2013-01-04 10:31:00,
2013-01-04 04:36:00,16.5,13.6,30.32,SSW,205,9.0,9.0,88,0.00,,,0.00,0,HR-IXPWINDi_r2_v1.2.,2013-01-04 10:36:00,
2013-01-04 04:41:00,16.5,13.9,30.32,SW,214,9.0,9.0,89,0.00,,,0.00,0,HR-IXPWINDi_r2_v1.2.,2013-01-04 10:41:00,
2013-01-04 04:47:00,16.5,13.9,30.31,South,180,5.0,9.0,89,0.00,,,0.00,0,HR-IXPWINDi_r2_v1.2.,2013-01-04 10:47:00,
2013-01-04 04:52:00,16.5,13.9,30.31,South,190,9.0,10.0,89,0.00,,,0.00,0,HR-IXPWINDi_r2_v1.2.,2013-01-04 10:52:00,
2013-01-04 04:57:00,16.6,14.0,30.31,SSW,194,7.0,10.0,89,0.00,,,0.00,0,HR-IXPWINDi_r2_v1.2.,2013-01-04 10:57:00,
2013-01-04 05:02:00,16.6,13.7,30.31,SSW,203,7.0,11.0,88,0.00,,,0.00,0,HR-IXPWINDi_r2_v1.2.,2013-01-04 11:02:00,
2013-01-04 05:08:00,16.6,13.7,30.31,South,189,3.0,11.0,88,0.00,,,0.00,0,HR-IXPWINDi_r2_v1.2.,2013-01-04 11:08:00,
2013-01-04 05:13:00,16.4,13.5,30.31,South,173,8.0,10.0,88,0.00,,,0.00,0,HR-IXPWINDi_r2_v1.2.,2013-01-04 11:13:00,
2013-01-04 05:18:00,16.2,13.3,30.31,SSW,204,7.0,9.0,88,0.00,,,0.00,0,HR-IXPWINDi_r2_v1.2.,2013-01-04 11:18:00,
2013-01-04 05:23:00,16.3,13.4,30.31,SSW,200,7.0,11.0,88,0.00,,,0.00,0,HR-IXPWINDi_r2_v1.2.,2013-01-04 11:23:00,
2013-01-04 05:28:00,16.6,14.0,30.31,SSW,212,4.0,11.0,89,0.00,,,0.00,0,HR-IXPWINDi_r2_v1.2.,2013-01-04 11:28:00,
2013-01-04 05:33:00,16.8,14.2,30.31,SW,227,4.0,10.0,89,0.00,,,0.00,0,HR-IXPWINDi_r2_v1.2.,2013-01-04 11:33:00,
2013-01-04 05:39:00,16.9,14.0,30.31,SSW,196,7.0,9.0,88,0.00,,,0.00,0,HR-IXPWINDi_r2_v1.2.,2013-01-04 11:39:00,
2013-01-04 05:44:00,16.7,13.8,30.30,SSW,200,4.0,9.0,88,0.00,,,0.00,0,HR-IXPWINDi_r2_v1.2.,2013-01-04 11:44:00,
2013-01-04 05:49:00,16.4,13.5,30.30,SSW,196,7.0,9.0,88,0.00,,,0.00,0,HR-IXPWINDi_r2_v1.2.,2013-01-04 11:49:00,
2013-01-04 05:54:00,16.4,13.5,30.31,SW,234,4.0,9.0,88,0.00,,,0.00,0,HR-IXPWINDi_r2_v1.2.,2013-01-04 11:54:00,
2013-01-04 06:00:00,16.4,13.5,30.31,South,189,6.0,8.0,88,0.00,,,0.00,0,HR-IXPWINDi_r2_v1.2.,2013-01-04 12:00:00,
2013-01-04 06:05:00,16.3,13.2,30.30,South,187,6.0,8.0,87,0.00,,,0.00,0,HR-IXPWINDi_r2_v1.2.,2013-01-04 12:05:00,
2013-01-04 06:10:00,16.0,12.9,30.30,South,187,8.0,9.0,87,0.00,,,0.00,0,HR-IXPWINDi_r2_v1.2.,2013-01-04 12:10:00,
2013-01-04 06:15:00,15.9,12.8,30.30,South,188,9.0,9.0,87,0.00,,,0.00,0,HR-IXPWINDi_r2_v1.2.,2013-01-04 12:15:00,
2013-01-04 06:21:00,15.9,13.0,30.30,SSW,213,7.0,9.0,88,0.00,,,0.00,0,HR-IXPWINDi_r2_v1.2.,2013-01-04 12:21:00,
2013-01-04 06:26:00,16.1,13.2,30.30,SSW,198,7.0,10.0,88,0.00,,,0.00,0,HR-IXPWINDi_r2_v1.2.,2013-01-04 12:26:00,
2013-01-04 06:31:00,16.3,13.4,30.30,South,178,6.0,10.0,88,0.00,,,0.00,0,HR-IXPWINDi_r2_v1.2.,2013-01-04 12:31:00,
2013-01-04 06:36:00,16.4,13.5,30.30,SSW,196,7.0,9.0,88,0.00,,,0.00,0,HR-IXPWINDi_r2_v1.2.,2013-01-04 12:36:00,
2013-01-04 06:41:00,16.3,13.4,30.30,SSW,207,5.0,11.0,88,0.00,,,0.00,0,HR-IXPWINDi_r2_v1.2.,2013-01-04 12:41:00,
2013-01-04 06:47:00,16.2,13.1,30.30,South,177,6.0,11.0,87,0.00,,,0.00,0,HR-IXPWINDi_r2_v1.2.,2013-01-04 12:47:00,
2013-01-04 06:52:00,16.1,13.0,30.30,SSW,201,3.0,8.0,87,0.00,,,0.00,0,HR-IXPWINDi_r2_v1.2.,2013-01-04 12:52:00,
2013-01-04 06:57:00,16.0,12.9,30.31,SSW,204,2.0,7.0,87,0.00,,,0.00,0,HR-IXPWINDi_r2_v1.2.,2013-01-04 12:57:00,
2013-01-04 07:02:00,16.1,13.0,30.31,South,170,4.0,7.0,87,0.00,,,0.00,0,HR-IXPWINDi_r2_v1.2.,2013-01-04 13:02:00,
2013-01-04 07:07:00,16.3,13.2,30.31,SSW,205,7.0,8.0,87,0.00,,,0.00,0,HR-IXPWINDi_r2_v1.2.,2013-01-04 13:07:00,
2013-01-04 07:12:00,16.3,13.2,30.31,South,187,6.0,8.0,87,0.00,,,0.00,0,HR-IXPWINDi_r2_v1.2.,2013-01-04 13:12:00,
2013-01-04 07:18:00,16.1,13.0,30.31,South,185,5.0,8.0,87,0.00,,,0.00,0,HR-IXPWINDi_r2_v1.2.,2013-01-04 13:18:00,
2013-01-04 07:23:00,16.1,13.0,30.30,SSW,208,6.0,10.0,87,0.00,,,0.00,0,HR-IXPWINDi_r2_v1.2.,2013-01-04 13:23:00,
2013-01-04 07:28:00,16.1,13.0,30.30,SSW,210,8.0,11.0,87,0.00,,,0.00,0,HR-IXPWINDi_r2_v1.2.,2013-01-04 13:28:00,
2013-01-04 07:33:00,16.1,13.0,30.30,WSW,254,6.0,11.0,87,0.00,,,0.00,0,HR-IXPWINDi_r2_v1.2.,2013-01-04 13:33:00,
2013-01-04 07:38:00,16.2,13.1,30.30,South,185,5.0,10.0,87,0.00,,,0.00,0,HR-IXPWINDi_r2_v1.2.,2013-01-04 13:38:00,
2013-01-04 07:44:00,16.3,13.2,30.30,SSW,204,7.0,10.0,87,0.00,,,0.00,0,HR-IXPWINDi_r2_v1.2.,2013-01-04 13:44:00,
2013-01-04 07:49:00,16.3,13.2,30.30,South,171,5.0,10.0,87,0.00,,,0.00,5,HR-IXPWINDi_r2_v1.2.,2013-01-04 13:49:00,
2013-01-04 07:54:00,16.1,13.0,30.30,SSW,211,5.0,9.0,87,0.00,,,0.00,9,HR-IXPWINDi_r2_v1.2.,2013-01-04 13:54:00,
2013-01-04 07:59:00,16.1,13.0,30.30,SSW,205,7.0,8.0,87,0.00,,,0.00,16,HR-IXPWINDi_r2_v1.2.,2013-01-04 13:59:00,
2013-01-04 08:05:00,16.1,13.0,30.30,SSW,211,4.0,7.0,87,0.00,,,0.00,25,HR-IXPWINDi_r2_v1.2.,2013-01-04 14:05:00,
2013-01-04 08:10:00,16.1,13.0,30.30,SW,218,5.0,7.0,87,0.00,,,0.00,33,HR-IXPWINDi_r2_v1.2.,2013-01-04 14:10:00,
2013-01-04 08:15:00,16.1,13.0,30.30,SSW,209,6.0,7.0,87,0.00,,,0.00,44,HR-IXPWINDi_r2_v1.2.,2013-01-04 14:15:00,
2013-01-04 08:20:00,16.2,13.1,30.30,SW,218,3.0,7.0,87,0.00,,,0.00,56,HR-IXPWINDi_r2_v1.2.,2013-01-04 14:20:00,
2013-01-04 08:25:00,16.4,13.2,30.31,SSW,206,7.0,7.0,87,0.00,,,0.00,69,HR-IXPWINDi_r2_v1.2.,2013-01-04 14:25:00,
2013-01-04 08:30:00,16.5,13.3,30.30,SSW,210,7.0,8.0,87,0.00,,,0.00,83,HR-IXPWINDi_r2_v1.2.,2013-01-04 14:30:00,
2013-01-04 08:36:00,16.5,13.1,30.30,SSW,192,6.0,8.0,86,0.00,,,0.00,98,HR-IXPWINDi_r2_v1.2.,2013-01-04 14:36:00,
2013-01-04 08:41:00,16.4,13.0,30.30,South,184,5.0,8.0,86,0.00,,,0.00,113,HR-IXPWINDi_r2_v1.2.,2013-01-04 14:41:00,
2013-01-04 08:46:00,16.4,13.0,30.31,South,182,6.0,7.0,86,0.00,,,0.00,128,HR-IXPWINDi_r2_v1.2.,2013-01-04 14:46:00,
2013-01-04 08:51:00,16.5,13.1,30.31,SSW,192,4.0,8.0,86,0.00,,,0.00,144,HR-IXPWINDi_r2_v1.2.,2013-01-04 14:51:00,
2013-01-04 08:56:00,16.6,13.2,30.30,South,182,6.0,10.0,86,0.00,,,0.00,158,HR-IXPWINDi_r2_v1.2.,2013-01-04 14:56:00,
2013-01-04 09:01:00,16.9,13.5,30.30,South,189,6.0,10.0,86,0.00,,,0.00,174,HR-IXPWINDi_r2_v1.2.,2013-01-04 15:01:00,
2013-01-04 09:07:00,17.0,13.6,30.31,SSW,207,5.0,12.0,86,0.00,,,0.00,188,HR-IXPWINDi_r2_v1.2.,2013-01-04 15:07:00,
2013-01-04 09:12:00,17.3,13.9,30.31,SSW,205,7.0,12.0,86,0.00,,,0.00,199,HR-IXPWINDi_r2_v1.2.,2013-01-04 15:12:00,
2013-01-04 09:17:00,17.5,13.8,30.30,SSW,204,6.0,12.0,85,0.00,,,0.00,211,HR-IXPWINDi_r2_v1.2.,2013-01-04 15:17:00,
2013-01-04 09:22:00,17.8,14.1,30.30,SW,236,9.0,12.0,85,0.00,,,0.00,225,HR-IXPWINDi_r2_v1.2.,2013-01-04 15:22:00,
2013-01-04 09:27:00,18.1,14.4,30.30,SW,235,6.0,11.0,85,0.00,,,0.00,234,HR-IXPWINDi_r2_v1.2.,2013-01-04 15:27:00,
2013-01-04 09:32:00,18.3,14.6,30.31,WSW,251,4.0,11.0,85,0.00,,,0.00,250,HR-IXPWINDi_r2_v1.2.,2013-01-04 15:32:00,
2013-01-04 09:38:00,18.7,14.7,30.31,SW,231,6.0,10.0,84,0.00,,,0.00,260,HR-IXPWINDi_r2_v1.2.,2013-01-04 15:38:00,
2013-01-04 09:43:00,19.1,15.1,30.31,WSW,252,7.0,9.0,84,0.00,,,0.00,272,HR-IXPWINDi_r2_v1.2.,2013-01-04 15:43:00,
2013-01-04 09:48:00,19.4,15.1,30.31,SSW,202,5.0,10.0,83,0.00,,,0.00,285,HR-IXPWINDi_r2_v1.2.,2013-01-04 15:48:00,
2013-01-04 09:53:00,19.7,15.4,30.32,WSW,249,5.0,10.0,83,0.00,,,0.00,297,HR-IXPWINDi_r2_v1.2.,2013-01-04 15:53:00,
2013-01-04 09:58:00,20.0,15.4,30.33,SW,226,7.0,9.0,82,0.00,,,0.00,308,HR-IXPWINDi_r2_v1.2.,2013-01-04 15:58:00,
2013-01-04 10:03:00,20.5,15.9,30.32,WSW,255,5.0,9.0,82,0.00,,,0.00,320,HR-IXPWINDi_r2_v1.2.,2013-01-04 16:03:00,
2013-01-04 10:09:00,20.8,15.9,30.33,SW,232,7.0,11.0,81,0.00,,,0.00,332,HR-IXPWINDi_r2_v1.2.,2013-01-04 16:09:00,
2013-01-04 10:14:00,21.0,15.8,30.33,WSW,240,4.0,11.0,80,0.00,,,0.00,341,HR-IXPWINDi_r2_v1.2.,2013-01-04 16:14:00,
2013-01-04 10:19:00,21.2,15.7,30.33,SW,232,5.0,9.0,79,0.00,,,0.00,353,HR-IXPWINDi_r2_v1.2.,2013-01-04 16:19:00,
2013-01-04 10:24:00,21.5,16.0,30.33,West,267,3.0,8.0,79,0.00,,,0.00,364,HR-IXPWINDi_r2_v1.2.,2013-01-04 16:24:00,
2013-01-04 10:29:00,21.9,16.4,30.33,WSW,252,5.0,8.0,79,0.00,,,0.00,374,HR-IXPWINDi_r2_v1.2.,2013-01-04 16:29:00,
2013-01-04 10:34:00,22.0,16.2,30.34,West,259,6.0,9.0,78,0.00,,,0.00,385,HR-IXPWINDi_r2_v1.2.,2013-01-04 16:34:00,
2013-01-04 10:40:00,22.2,16.1,30.34,West,265,6.0,9.0,77,0.00,,,0.00,394,HR-IXPWINDi_r2_v1.2.,2013-01-04 16:40:00,
2013-01-04 10:45:00,22.2,16.1,30.34,WSW,254,7.0,10.0,77,0.00,,,0.00,403,HR-IXPWINDi_r2_v1.2.,2013-01-04 16:45:00,
2013-01-04 10:50:00,22.4,16.3,30.34,SW,234,7.0,10.0,77,0.00,,,0.00,411,HR-IXPWINDi_r2_v1.2.,2013-01-04 16:50:00,
2013-01-04 10:55:00,22.6,16.5,30.33,SW,234,5.0,10.0,77,0.00,,,0.00,420,HR-IXPWINDi_r2_v1.2.,2013-01-04 16:55:00,
2013-01-04 11:00:00,22.9,16.8,30.33,WSW,240,5.0,9.0,77,0.00,,,0.00,429,HR-IXPWINDi_r2_v1.2.,2013-01-04 17:00:00,
2013-01-04 11:05:00,22.9,16.8,30.33,SSW,194,5.0,10.0,77,0.00,,,0.00,438,HR-IXPWINDi_r2_v1.2.,2013-01-04 17:05:00,
2013-01-04 11:11:00,22.6,16.5,30.33,West,274,3.0,12.0,77,0.00,,,0.00,445,HR-IXPWINDi_r2_v1.2.,2013-01-04 17:11:00,
2013-01-04 11:16:00,22.8,16.7,30.33,WSW,254,5.0,12.0,77,0.00,,,0.00,452,HR-IXPWINDi_r2_v1.2.,2013-01-04 17:16:00,
2013-01-04 11:21:00,23.1,17.3,30.32,South,173,6.0,10.0,78,0.00,,,0.00,459,HR-IXPWINDi_r2_v1.2.,2013-01-04 17:21:00,
2013-01-04 11:27:00,23.3,17.5,30.32,South,191,3.0,10.0,78,0.00,,,0.00,464,HR-IXPWINDi_r2_v1.2.,2013-01-04 17:27:00,
2013-01-04 11:32:00,23.4,17.6,30.32,SW,226,7.0,10.0,78,0.00,,,0.00,469,HR-IXPWINDi_r2_v1.2.,2013-01-04 17:32:00,
2013-01-04 11:37:00,23.7,17.9,30.32,South,186,10.0,10.0,78,0.00,,,0.00,473,HR-IXPWINDi_r2_v1.2.,2013-01-04 17:37:00,
2013-01-04 11:42:00,23.9,18.1,30.31,South,191,7.0,12.0,78,0.00,,,0.00,478,HR-IXPWINDi_r2_v1.2.,2013-01-04 17:42:00,
2013-01-04 11:47:00,24.0,17.9,30.31,SSW,209,8.0,14.0,77,0.00,,,0.00,482,HR-IXPWINDi_r2_v1.2.,2013-01-04 17:47:00,
2013-01-04 11:53:00,24.4,17.9,30.31,SSW,208,6.0,14.0,76,0.00,,,0.00,483,HR-IXPWINDi_r2_v1.2.,2013-01-04 17:53:00,
2013-01-04 11:58:00,24.8,18.3,30.31,SW,229,5.0,11.0,76,0.00,,,0.00,489,HR-IXPWINDi_r2_v1.2.,2013-01-04 17:58:00,
2013-01-04 12:03:00,25.1,18.6,30.31,SW,229,4.0,11.0,76,0.00,,,0.00,492,HR-IXPWINDi_r2_v1.2.,2013-01-04 18:03:00,
2013-01-04 12:08:00,25.4,18.6,30.30,South,183,5.0,11.0,75,0.00,,,0.00,492,HR-IXPWINDi_r2_v1.2.,2013-01-04 18:08:00,
2013-01-04 12:13:00,25.6,18.8,30.30,SW,224,8.0,13.0,75,0.00,,,0.00,494,HR-IXPWINDi_r2_v1.2.,2013-01-04 18:13:00,
2013-01-04 12:18:00,26.1,19.3,30.30,WSW,242,4.0,13.0,75,0.00,,,0.00,496,HR-IXPWINDi_r2_v1.2.,2013-01-04 18:18:00,
2013-01-04 12:23:00,26.6,19.1,30.29,West,271,8.0,12.0,73,0.00,,,0.00,497,HR-IXPWINDi_r2_v1.2.,2013-01-04 18:23:00,
2013-01-04 12:28:00,26.9,19.4,30.29,West,281,8.0,12.0,73,0.00,,,0.00,497,HR-IXPWINDi_r2_v1.2.,2013-01-04 18:28:00,
2013-01-04 12:33:00,27.1,19.3,30.29,SW,225,8.0,12.0,72,0.00,,,0.00,497,HR-IXPWINDi_r2_v1.2.,2013-01-04 18:33:00,
2013-01-04 12:39:00,27.4,19.9,30.28,SSW,206,6.0,12.0,73,0.00,,,0.00,496,HR-IXPWINDi_r2_v1.2.,2013-01-04 18:39:00,
2013-01-04 12:44:00,27.5,19.7,30.28,SSW,209,8.0,11.0,72,0.00,,,0.00,496,HR-IXPWINDi_r2_v1.2.,2013-01-04 18:44:00,
2013-01-04 12:49:00,27.8,20.3,30.28,WSW,256,5.0,11.0,73,0.00,,,0.00,494,HR-IXPWINDi_r2_v1.2.,2013-01-04 18:49:00,
2013-01-04 12:54:00,27.9,20.1,30.28,SSW,197,10.0,15.0,72,0.00,,,0.00,494,HR-IXPWINDi_r2_v1.2.,2013-01-04 18:54:00,
2013-01-04 12:59:00,28.1,20.2,30.27,South,188,6.0,15.0,72,0.00,,,0.00,492,HR-IXPWINDi_r2_v1.2.,2013-01-04 18:59:00,
2013-01-04 13:05:00,28.2,20.0,30.27,SSW,192,9.0,13.0,71,0.00,,,0.00,489,HR-IXPWINDi_r2_v1.2.,2013-01-04 19:05:00,
2013-01-04 13:10:00,28.7,20.8,30.27,SW,236,9.0,13.0,72,0.00,,,0.00,485,HR-IXPWINDi_r2_v1.2.,2013-01-04 19:10:00,
2013-01-04 13:15:00,28.7,20.8,30.27,SSE,168,4.0,11.0,72,0.00,,,0.00,482,HR-IXPWINDi_r2_v1.2.,2013-01-04 19:15:00,
2013-01-04 13:20:00,28.9,20.7,30.26,South,184,4.0,11.0,71,0.00,,,0.00,478,HR-IXPWINDi_r2_v1.2.,2013-01-04 19:20:00,
2013-01-04 13:25:00,29.1,21.2,30.26,SW,224,6.0,11.0,72,0.00,,,0.00,475,HR-IXPWINDi_r2_v1.2.,2013-01-04 19:25:00,
2013-01-04 13:31:00,29.7,21.8,30.26,WSW,253,2.0,10.0,72,0.00,,,0.00,469,HR-IXPWINDi_r2_v1.2.,2013-01-04 19:31:00,
2013-01-04 13:36:00,30.0,21.7,30.26,West,265,1.0,11.0,71,0.00,,,0.00,464,HR-IXPWINDi_r2_v1.2.,2013-01-04 19:36:00,
2013-01-04 13:41:00,30.3,21.7,30.26,SSW,209,4.0,12.0,70,0.00,,,0.00,459,HR-IXPWINDi_r2_v1.2.,2013-01-04 19:41:00,
2013-01-04 13:46:00,30.6,22.0,30.26,SW,214,7.0,12.0,70,0.00,,,0.00,454,HR-IXPWINDi_r2_v1.2.,2013-01-04 19:46:00,
2013-01-04 13:51:00,31.2,22.6,30.26,West,270,2.0,10.0,70,0.00,,,0.00,446,HR-IXPWINDi_r2_v1.2.,2013-01-04 19:51:00,
2013-01-04 13:56:00,31.2,22.2,30.26,West,269,2.0,8.0,69,0.00,,,0.00,439,HR-IXPWINDi_r2_v1.2.,2013-01-04 19:56:00,
2013-01-04 14:01:00,31.6,22.3,30.25,SW,221,7.0,9.0,68,0.00,,,0.00,432,HR-IXPWINDi_r2_v1.2.,2013-01-04 20:01:00,
2013-01-04 14:07:00,31.6,22.6,30.25,WSW,248,2.0,9.0,69,0.00,,,0.00,425,HR-IXPWINDi_r2_v1.2.,2013-01-04 20:07:00,
2013-01-04 14:12:00,31.6,22.3,30.25,SW,221,3.0,9.0,68,0.00,,,0.00,417,HR-IXPWINDi_r2_v1.2.,2013-01-04 20:12:00,
2013-01-04 14:17:00,31.9,22.5,30.25,SW,224,5.0,9.0,68,0.00,,,0.00,410,HR-IXPWINDi_r2_v1.2.,2013-01-04 20:17:00,
2013-01-04 14:22:00,32.2,22.8,30.25,WSW,238,4.0,9.0,68,0.00,,,0.00,399,HR-IXPWINDi_r2_v1.2.,2013-01-04 20:22:00,
2013-01-04 14:27:00,32.6,22.5,30.25,WSW,258,2.0,9.0,66,0.00,,,0.00,392,HR-IXPWINDi_r2_v1.2.,2013-01-04 20:27:00,
2013-01-04 14:32:00,32.5,22.4,30.24,WSW,246,4.0,7.0,66,0.00,,,0.00,381,HR-IXPWINDi_r2_v1.2.,2013-01-04 20:32:00,
2013-01-04 14:38:00,32.8,22.7,30.24,SW,219,1.0,7.0,66,0.00,,,0.00,373,HR-IXPWINDi_r2_v1.2.,2013-01-04 20:38:00,
2013-01-04 14:43:00,33.1,22.6,30.24,SSW,213,2.0,7.0,65,0.00,,,0.00,362,HR-IXPWINDi_r2_v1.2.,2013-01-04 20:43:00,
2013-01-04 14:48:00,33.5,23.0,30.24,SW,227,2.0,7.0,65,0.00,,,0.00,352,HR-IXPWINDi_r2_v1.2.,2013-01-04 20:48:00,
2013-01-04 14:53:00,33.9,23.0,30.24,WNW,290,0.0,6.0,64,0.00,,,0.00,343,HR-IXPWINDi_r2_v1.2.,2013-01-04 20:53:00,
2013-01-04 14:59:00,34.2,22.5,30.23,SW,215,1.0,5.0,62,0.00,,,0.00,329,HR-IXPWINDi_r2_v1.2.,2013-01-04 20:59:00,
2013-01-04 15:04:00,34.3,22.6,30.24,SW,221,0.0,5.0,62,0.00,,,0.00,318,HR-IXPWINDi_r2_v1.2.,2013-01-04 21:04:00,
2013-01-04 15:09:00,34.2,22.2,30.24,SW,231,0.0,4.0,61,0.00,,,0.00,308,HR-IXPWINDi_r2_v1.2.,2013-01-04 21:09:00,
2013-01-04 15:14:00,34.3,22.2,30.24,SSW,213,0.0,4.0,61,0.00,,,0.00,295,HR-IXPWINDi_r2_v1.2.,2013-01-04 21:14:00,
2013-01-04 15:19:00,34.1,22.1,30.24,SSW,205,3.0,5.0,61,0.00,,,0.00,283,HR-IXPWINDi_r2_v1.2.,2013-01-04 21:19:00,
2013-01-04 15:24:00,33.9,22.3,30.23,SSW,210,4.0,5.0,62,0.00,,,0.00,271,HR-IXPWINDi_r2_v1.2.,2013-01-04 21:24:00,
2013-01-04 15:29:00,33.8,22.2,30.23,SW,217,0.0,5.0,62,0.00,,,0.00,258,HR-IXPWINDi_r2_v1.2.,2013-01-04 21:29:00,
2013-01-04 15:35:00,33.7,22.1,30.23,SW,217,0.0,5.0,62,0.00,,,0.00,244,HR-IXPWINDi_r2_v1.2.,2013-01-04 21:35:00,
2013-01-04 15:40:00,34.3,22.2,30.24,SW,217,0.0,1.0,61,0.00,,,0.00,232,HR-IXPWINDi_r2_v1.2.,2013-01-04 21:40:00,
2013-01-04 15:45:00,34.1,22.1,30.24,SSW,195,0.0,6.0,61,0.00,,,0.00,218,HR-IXPWINDi_r2_v1.2.,2013-01-04 21:45:00,
2013-01-04 15:50:00,33.8,22.2,30.24,South,190,1.0,6.0,62,0.00,,,0.00,199,HR-IXPWINDi_r2_v1.2.,2013-01-04 21:50:00,
2013-01-04 15:56:00,33.6,22.7,30.24,South,184,2.0,4.0,64,0.00,,,0.00,181,HR-IXPWINDi_r2_v1.2.,2013-01-04 21:56:00,
2013-01-04 16:01:00,33.5,22.6,30.24,South,188,6.0,6.0,64,0.00,,,0.00,165,HR-IXPWINDi_r2_v1.2.,2013-01-04 22:01:00,
2013-01-04 16:06:00,33.3,22.4,30.25,SSW,205,6.0,7.0,64,0.00,,,0.00,148,HR-IXPWINDi_r2_v1.2.,2013-01-04 22:06:00,
2013-01-04 16:11:00,32.9,22.4,30.25,WSW,241,4.0,7.0,65,0.00,,,0.00,130,HR-IXPWINDi_r2_v1.2.,2013-01-04 22:11:00,
2013-01-04 16:16:00,33.1,22.6,30.25,SW,231,4.0,7.0,65,0.00,,,0.00,114,HR-IXPWINDi_r2_v1.2.,2013-01-04 22:16:00,
2013-01-04 16:21:00,33.2,22.7,30.25,SW,236,2.0,7.0,65,0.00,,,0.00,97,HR-IXPWINDi_r2_v1.2.,2013-01-04 22:21:00,
2013-01-04 16:27:00,33.1,22.6,30.25,SW,214,6.0,7.0,65,0.00,,,0.00,81,HR-IXPWINDi_r2_v1.2.,2013-01-04 22:27:00,
2013-01-04 16:32:00,33.0,22.9,30.25,WSW,238,5.0,7.0,66,0.00,,,0.00,67,HR-IXPWINDi_r2_v1.2.,2013-01-04 22:32:00,
2013-01-04 16:37:00,32.8,22.3,30.25,SSW,192,5.0,8.0,65,0.00,,,0.00,54,HR-IXPWINDi_r2_v1.2.,2013-01-04 22:37:00,
2013-01-04 16:42:00,32.8,22.7,30.25,SSW,207,8.0,8.0,66,0.00,,,0.00,42,HR-IXPWINDi_r2_v1.2.,2013-01-04 22:42:00,
2013-01-04 16:47:00,32.4,22.3,30.25,South,183,5.0,11.0,66,0.00,,,0.00,32,HR-IXPWINDi_r2_v1.2.,2013-01-04 22:47:00,
2013-01-04 16:52:00,32.0,22.3,30.25,SSW,192,3.0,11.0,67,0.00,,,0.00,23,HR-IXPWINDi_r2_v1.2.,2013-01-04 22:52:00,
2013-01-04 16:57:00,31.7,22.3,30.24,SSW,208,3.0,8.0,68,0.00,,,0.00,16,HR-IXPWINDi_r2_v1.2.,2013-01-04 22:57:00,
2013-01-04 17:02:00,31.5,22.5,30.24,SSW,210,7.0,8.0,69,0.00,,,0.00,11,HR-IXPWINDi_r2_v1.2.,2013-01-04 23:02:00,
2013-01-04 17:08:00,31.1,22.5,30.24,SSW,208,5.0,8.0,70,0.00,,,0.00,7,HR-IXPWINDi_r2_v1.2.,2013-01-04 23:08:00,
2013-01-04 17:13:00,30.8,22.2,30.24,SSW,198,7.0,9.0,70,0.00,,,0.00,5,HR-IXPWINDi_r2_v1.2.,2013-01-04 23:13:00,
2013-01-04 17:18:00,30.5,22.2,30.24,South,184,4.0,9.0,71,0.00,,,0.00,0,HR-IXPWINDi_r2_v1.2.,2013-01-04 23:18:00,
2013-01-04 17:23:00,30.0,21.7,30.24,SSW,207,3.0,8.0,71,0.00,,,0.00,0,HR-IXPWINDi_r2_v1.2.,2013-01-04 23:23:00,
2013-01-04 17:29:00,29.5,21.3,30.24,SSW,203,0.0,7.0,71,0.00,,,0.00,0,HR-IXPWINDi_r2_v1.2.,2013-01-04 23:29:00,
2013-01-04 17:34:00,29.1,21.2,30.24,SSW,195,4.0,5.0,72,0.00,,,0.00,0,HR-IXPWINDi_r2_v1.2.,2013-01-04 23:34:00,
2013-01-04 17:39:00,28.8,21.2,30.24,SSW,194,0.0,5.0,73,0.00,,,0.00,0,HR-IXPWINDi_r2_v1.2.,2013-01-04 23:39:00,
2013-01-04 17:44:00,28.3,20.8,30.24,SSW,202,5.0,5.0,73,0.00,,,0.00,0,HR-IXPWINDi_r2_v1.2.,2013-01-04 23:44:00,
2013-01-04 17:49:00,28.3,21.1,30.24,SW,225,2.0,6.0,74,0.00,,,0.00,0,HR-IXPWINDi_r2_v1.2.,2013-01-04 23:49:00,
2013-01-04 17:54:00,28.0,20.8,30.24,SSW,193,3.0,6.0,74,0.00,,,0.00,0,HR-IXPWINDi_r2_v1.2.,2013-01-04 23:54:00,
2013-01-04 18:00:00,27.6,20.7,30.24,SSW,213,5.0,7.0,75,0.00,,,0.00,0,HR-IXPWINDi_r2_v1.2.,2013-01-05 00:00:00,
2013-01-04 18:05:00,27.3,20.4,30.24,South,180,2.0,8.0,75,0.00,,,0.00,0,HR-IXPWINDi_r2_v1.2.,2013-01-05 00:05:00,
2013-01-04 18:10:00,27.0,20.5,30.24,South,181,6.0,8.0,76,0.00,,,0.00,0,HR-IXPWINDi_r2_v1.2.,2013-01-05 00:10:00,
2013-01-04 18:15:00,26.9,20.7,30.24,SSE,166,5.0,9.0,77,0.00,,,0.00,0,HR-IXPWINDi_r2_v1.2.,2013-01-05 00:15:00,
2013-01-04 18:20:00,26.7,20.5,30.24,South,175,2.0,12.0,77,0.00,,,0.00,0,HR-IXPWINDi_r2_v1.2.,2013-01-05 00:20:00,
2013-01-04 18:25:00,26.5,20.3,30.25,South,180,7.0,12.0,77,0.00,,,0.00,0,HR-IXPWINDi_r2_v1.2.,2013-01-05 00:25:00,
2013-01-04 18:31:00,26.1,19.9,30.25,South,180,5.0,11.0,77,0.00,,,0.00,0,HR-IXPWINDi_r2_v1.2.,2013-01-05 00:31:00,
2013-01-04 18:36:00,25.9,19.7,30.25,SSW,202,7.0,11.0,77,0.00,,,0.00,0,HR-IXPWINDi_r2_v1.2.,2013-01-05 00:36:00,
2013-01-04 18:41:00,25.8,19.9,30.25,South,180,5.0,11.0,78,0.00,,,0.00,0,HR-IXPWINDi_r2_v1.2.,2013-01-05 00:41:00,
2013-01-04 18:46:00,25.8,19.9,30.25,South,177,5.0,11.0,78,0.00,,,0.00,0,HR-IXPWINDi_r2_v1.2.,2013-01-05 00:46:00,
2013-01-04 18:51:00,25.6,19.7,30.25,South,175,2.0,9.0,78,0.00,,,0.00,0,HR-IXPWINDi_r2_v1.2.,2013-01-05 00:51:00,
2013-01-04 18:57:00,25.4,19.2,30.24,SSW,195,2.0,8.0,77,0.00,,,0.00,0,HR-IXPWINDi_r2_v1.2.,2013-01-05 00:57:00,
2013-01-04 19:02:00,25.3,19.1,30.25,SSW,207,5.0,9.0,77,0.00,,,0.00,0,HR-IXPWINDi_r2_v1.2.,2013-01-05 01:02:00,
2013-01-04 19:07:00,25.2,19.0,30.25,SSW,200,3.0,10.0,77,0.00,,,0.00,0,HR-IXPWINDi_r2_v1.2.,2013-01-05 01:07:00,
2013-01-04 19:12:00,25.0,18.8,30.25,SW,217,5.0,10.0,77,0.00,,,0.00,0,HR-IXPWINDi_r2_v1.2.,2013-01-05 01:12:00,
2013-01-04 19:17:00,24.9,18.7,30.24,South,186,3.0,10.0,77,0.00,,,0.00,0,HR-IXPWINDi_r2_v1.2.,2013-01-05 01:17:00,
2013-01-04 19:23:00,24.8,18.6,30.24,SSE,167,3.0,9.0,77,0.00,,,0.00,0,HR-IXPWINDi_r2_v1.2.,2013-01-05 01:23:00,
2013-01-04 19:28:00,24.7,18.5,30.24,South,190,7.0,8.0,77,0.00,,,0.00,0,HR-IXPWINDi_r2_v1.2.,2013-01-05 01:28:00,
2013-01-04 19:33:00,24.5,18.0,30.24,SSW,197,5.0,8.0,76,0.00,,,0.00,0,HR-IXPWINDi_r2_v1.2.,2013-01-05 01:33:00,
2013-01-04 19:38:00,24.3,17.8,30.25,South,178,2.0,8.0,76,0.00,,,0.00,0,HR-IXPWINDi_r2_v1.2.,2013-01-05 01:38:00,
2013-01-04 19:43:00,24.2,18.1,30.25,South,184,3.0,7.0,77,0.00,,,0.00,0,HR-IXPWINDi_r2_v1.2.,2013-01-05 01:43:00,
2013-01-04 19:49:00,24.0,17.9,30.24,SSW,196,2.0,7.0,77,0.00,,,0.00,0,HR-IXPWINDi_r2_v1.2.,2013-01-05 01:49:00,
2013-01-04 19:54:00,23.8,17.7,30.24,SSW,213,0.0,5.0,77,0.00,,,0.00,0,HR-IXPWINDi_r2_v1.2.,2013-01-05 01:54:00,
2013-01-04 19:59:00,23.5,17.1,30.24,South,175,3.0,5.0,76,0.00,,,0.00,0,HR-IXPWINDi_r2_v1.2.,2013-01-05 01:59:00,
2013-01-04 20:04:00,23.0,16.9,30.24,South,185,3.0,5.0,77,0.00,,,0.00,0,HR-IXPWINDi_r2_v1.2.,2013-01-05 02:04:00,
2013-01-04 20:09:00,22.7,16.6,30.24,South,179,3.0,5.0,77,0.00,,,0.00,0,HR-IXPWINDi_r2_v1.2.,2013-01-05 02:09:00,
2013-01-04 20:15:00,22.6,16.8,30.24,South,171,2.0,8.0,78,0.00,,,0.00,0,HR-IXPWINDi_r2_v1.2.,2013-01-05 02:15:00,
2013-01-04 20:20:00,22.6,17.1,30.24,South,178,2.0,8.0,79,0.00,,,0.00,0,HR-IXPWINDi_r2_v1.2.,2013-01-05 02:20:00,
2013-01-04 20:25:00,22.5,17.0,30.24,South,188,5.0,6.0,79,0.00,,,0.00,0,HR-IXPWINDi_r2_v1.2.,2013-01-05 02:25:00,
2013-01-04 20:30:00,22.6,17.4,30.24,SSW,192,5.0,8.0,80,0.00,,,0.00,0,HR-IXPWINDi_r2_v1.2.,2013-01-05 02:30:00,
2013-01-04 20:36:00,22.6,17.4,30.23,WSW,240,5.0,8.0,80,0.00,,,0.00,0,HR-IXPWINDi_r2_v1.2.,2013-01-05 02:36:00,
2013-01-04 20:41:00,22.7,17.5,30.23,South,190,4.0,8.0,80,0.00,,,0.00,0,HR-IXPWINDi_r2_v1.2.,2013-01-05 02:41:00,
2013-01-04 20:46:00,22.8,17.6,30.23,SW,217,3.0,7.0,80,0.00,,,0.00,0,HR-IXPWINDi_r2_v1.2.,2013-01-05 02:46:00,
2013-01-04 20:51:00,22.8,17.6,30.23,SW,214,3.0,7.0,80,0.00,,,0.00,0,HR-IXPWINDi_r2_v1.2.,2013-01-05 02:51:00,
2013-01-04 20:57:00,22.7,17.5,30.23,South,184,2.0,7.0,80,0.00,,,0.00,0,HR-IXPWINDi_r2_v1.2.,2013-01-05 02:57:00,
2013-01-04 21:02:00,22.7,17.5,30.23,South,185,4.0,7.0,80,0.00,,,0.00,0,HR-IXPWINDi_r2_v1.2.,2013-01-05 03:02:00,
2013-01-04 21:07:00,22.6,17.7,30.23,SSW,213,1.0,7.0,81,0.00,,,0.00,0,HR-IXPWINDi_r2_v1.2.,2013-01-05 03:07:00,
2013-01-04 21:12:00,22.5,17.3,30.23,South,191,4.0,6.0,80,0.00,,,0.00,0,HR-IXPWINDi_r2_v1.2.,2013-01-05 03:12:00,
2013-01-04 21:17:00,22.4,17.2,30.23,South,189,2.0,5.0,80,0.00,,,0.00,0,HR-IXPWINDi_r2_v1.2.,2013-01-05 03:17:00,
2013-01-04 21:23:00,22.2,17.0,30.23,SW,215,2.0,5.0,80,0.00,,,0.00,0,HR-IXPWINDi_r2_v1.2.,2013-01-05 03:23:00,
2013-01-04 21:28:00,22.1,16.9,30.23,SSW,205,1.0,4.0,80,0.00,,,0.00,0,HR-IXPWINDi_r2_v1.2.,2013-01-05 03:28:00,
2013-01-04 21:33:00,21.9,16.7,30.22,SSW,196,1.0,4.0,80,0.00,,,0.00,0,HR-IXPWINDi_r2_v1.2.,2013-01-05 03:33:00,
2013-01-04 21:38:00,21.7,16.5,30.22,SSW,203,3.0,5.0,80,0.00,,,0.00,0,HR-IXPWINDi_r2_v1.2.,2013-01-05 03:38:00,
2013-01-04 21:43:00,21.5,16.6,30.22,SSW,207,0.0,5.0,81,0.00,,,0.00,0,HR-IXPWINDi_r2_v1.2.,2013-01-05 03:43:00,
2013-01-04 21:48:00,21.3,16.4,30.22,SSW,209,1.0,5.0,81,0.00,,,0.00,0,HR-IXPWINDi_r2_v1.2.,2013-01-05 03:48:00,
2013-01-04 21:53:00,21.0,15.8,30.22,South,175,3.0,5.0,80,0.00,,,0.00,0,HR-IXPWINDi_r2_v1.2.,2013-01-05 03:53:00,
2013-01-04 21:59:00,20.5,15.6,30.22,South,172,4.0,7.0,81,0.00,,,0.00,0,HR-IXPWINDi_r2_v1.2.,2013-01-05 03:59:00,
2013-01-04 22:04:00,20.3,15.4,30.22,SW,221,4.0,8.0,81,0.00,,,0.00,0,HR-IXPWINDi_r2_v1.2.,2013-01-05 04:04:00,
2013-01-04 22:09:00,20.3,15.7,30.22,South,183,4.0,8.0,82,0.00,,,0.00,0,HR-IXPWINDi_r2_v1.2.,2013-01-05 04:09:00,
2013-01-04 22:14:00,20.4,16.1,30.22,SW,223,4.0,7.0,83,0.00,,,0.00,0,HR-IXPWINDi_r2_v1.2.,2013-01-05 04:14:00,
2013-01-04 22:19:00,20.8,16.5,30.22,SW,217,6.0,8.0,83,0.00,,,0.00,0,HR-IXPWINDi_r2_v1.2.,2013-01-05 04:19:00,
2013-01-04 22:24:00,20.9,16.3,30.22,SW,219,3.0,8.0,82,0.00,,,0.00,0,HR-IXPWINDi_r2_v1.2.,2013-01-05 04:24:00,
2013-01-04 22:30:00,20.9,16.3,30.22,South,184,6.0,8.0,82,0.00,,,0.00,0,HR-IXPWINDi_r2_v1.2.,2013-01-05 04:30:00,
2013-01-04 22:35:00,20.8,16.2,30.22,South,187,3.0,7.0,82,0.00,,,0.00,0,HR-IXPWINDi_r2_v1.2.,2013-01-05 04:35:00,
2013-01-04 22:40:00,20.5,15.6,30.22,South,178,2.0,5.0,81,0.00,,,0.00,0,HR-IXPWINDi_r2_v1.2.,2013-01-05 04:40:00,
2013-01-04 22:45:00,20.3,15.4,30.22,South,185,1.0,5.0,81,0.00,,,0.00,0,HR-IXPWINDi_r2_v1.2.,2013-01-05 04:45:00,
2013-01-04 22:51:00,20.0,15.1,30.21,SSW,213,5.0,6.0,81,0.00,,,0.00,0,HR-IXPWINDi_r2_v1.2.,2013-01-05 04:51:00,
2013-01-04 22:56:00,19.8,14.9,30.21,SSW,202,4.0,8.0,81,0.00,,,0.00,0,HR-IXPWINDi_r2_v1.2.,2013-01-05 04:56:00,
2013-01-04 23:00:00,19.7,15.1,30.22,SSW,196,4.0,8.0,82,0.00,,,0.00,0,HR-IXPWINDi_r2_v1.2.,2013-01-05 05:00:00,
2013-01-04 23:05:00,19.9,15.6,30.22,SW,229,3.0,8.0,83,0.00,,,0.00,0,HR-IXPWINDi_r2_v1.2.,2013-01-05 05:05:00,
2013-01-04 23:10:00,20.1,15.8,30.21,SSW,193,6.0,8.0,83,0.00,,,0.00,0,HR-IXPWINDi_r2_v1.2.,2013-01-05 05:10:00,
2013-01-04 23:15:00,20.1,15.8,30.21,South,184,4.0,8.0,83,0.00,,,0.00,0,HR-IXPWINDi_r2_v1.2.,2013-01-05 05:15:00,
2013-01-04 23:20:00,19.9,15.6,30.21,SSW,201,2.0,7.0,83,0.00,,,0.00,0,HR-IXPWINDi_r2_v1.2.,2013-01-05 05:20:00,
2013-01-04 23:26:00,19.8,15.2,30.21,SSW,195,4.0,6.0,82,0.00,,,0.00,0,HR-IXPWINDi_r2_v1.2.,2013-01-05 05:26:00,
2013-01-04 23:31:00,19.6,15.0,30.21,SSW,192,4.0,6.0,82,0.00,,,0.00,0,HR-IXPWINDi_r2_v1.2.,2013-01-05 05:31:00,
2013-01-04 23:36:00,19.4,14.8,30.21,South,185,2.0,5.0,82,0.00,,,0.00,0,HR-IXPWINDi_r2_v1.2.,2013-01-05 05:36:00,
2013-01-04 23:41:00,19.3,14.7,30.20,SSW,192,1.0,6.0,82,0.00,,,0.00,0,HR-IXPWINDi_r2_v1.2.,2013-01-05 05:41:00,
2013-01-04 23:46:00,19.1,14.5,30.20,South,178,2.0,6.0,82,0.00,,,0.00,0,HR-IXPWINDi_r2_v1.2.,2013-01-05 05:46:00,
2013-01-04 23:51:00,18.9,14.4,30.20,South,182,2.0,6.0,82,0.00,,,0.00,0,HR-IXPWINDi_r2_v1.2.,2013-01-05 05:51:00,
2013-01-04 23:57:00,18.7,14.4,30.19,South,183,4.0,7.0,83,0.00,,,0.00,0,HR-IXPWINDi_r2_v1.2.,2013-01-05 05:57:00,